Time;durP1;ratioP1;P1;durP2;ratioP2;P2;SDS_P1;SDS_P2;PMS_P1;PMS_P2;Temp;Humidity;BMP_temperature;BMP_pressure;BME280_temperature;BME280_humidity;BME280_pressure;Samples;Min_cycle;Max_cycle;Signal;HPM_P1;HPM_P2
2023/09/18 00:00:21;;;;;;;;;;;;;;;;;;6054424;23;19928;-87
2023/09/18 00:05:54;;;;;;;;;;;;;;;;;;6066953;23;19921;-87
2023/09/18 00:08:19;;;;;;;;;;;;;;;;;;6055773;23;19927;-86
2023/09/18 00:10:45;;;;;;;;;;;;;;;;;;6051874;23;19921;-87
2023/09/18 00:13:11;;;;;;;;;;;;;;;;;;6166461;23;19920;-87
2023/09/18 00:15:40;;;;;;;;;;;;;;;;;;6143147;23;19981;-87
2023/09/18 00:18:08;;;;;;;;;;;;;;;;;;6171241;23;19927;-87
2023/09/18 00:20:35;;;;;;;;;;;;;;;;;;6143760;23;19916;-87
2023/09/18 00:23:02;;;;;;;;;;;;;;;;;;6175070;23;19923;-87
2023/09/18 00:25:30;;;;;;;;;;;;;;;;;;6169380;23;19920;-87
2023/09/18 00:27:59;;;;;;;;;;;;;;;;;;6172286;23;19936;-87
2023/09/18 00:30:25;;;;;;;;;;;;;;;;;;6172161;23;20519;-86
2023/09/18 00:32:51;;;;;;;;;;;;;;;;;;6149303;23;19926;-87
2023/09/18 00:35:18;;;;;;;;;;;;;;;;;;6215379;22;20627;-87
2023/09/18 00:37:46;;;;;;;;;;;;;;;;;;6260868;22;19926;-87
2023/09/18 00:40:12;;;;;;;;;;;;;;;;;;6238563;22;19951;-86
2023/09/18 00:42:39;;;;;;;;;;;;;;;;;;6233764;22;20004;-87
2023/09/18 00:45:06;;;;;;;;;;;;;;;;;;6241081;22;19923;-87
2023/09/18 00:47:33;;;;;;;;;;;;;;;;;;6235982;22;20340;-87
2023/09/18 00:49:59;;;;;;;;;;;;;;;;;;6237989;22;19919;-87
2023/09/18 00:55:39;;;;;;;;;;;;;;;;;;6148514;23;19921;-87
2023/09/18 01:04:18;;;;;;;;;;;;;;;;;;;;;
2023/09/18 01:06:58;;;;;;;;;;;;;;;;;;6088762;23;19927;-87
2023/09/18 01:09:32;;;;;;;;;;;;;;;;;;6086827;23;19968;-87
2023/09/18 01:14:53;;;;;;;;;;;;;;;;;;6082037;23;19992;-87
2023/09/18 01:17:19;;;;;;;;;;;;;;;;;;6062232;23;19921;-87
2023/09/18 01:19:46;;;;;;;;;;;;;;;;;;6062330;23;20358;-87
2023/09/18 01:22:13;;;;;;;;;;;;;;;;;;6059774;23;19931;-87
2023/09/18 01:24:41;;;;;;;;;;;;;;;;;;6063612;23;19980;-88
2023/09/18 01:27:08;;;;;;;;;;;;;;;;;;6200446;23;19919;-87
2023/09/18 01:29:36;;;;;;;;;;;;;;;;;;6205038;23;19942;-87
2023/09/18 01:32:06;;;;;;;;;;;;;;;;;;6207935;23;20002;-87
2023/09/18 01:34:33;;;;;;;;;;;;;;;;;;6188209;22;20152;-87
2023/09/18 01:37:00;;;;;;;;;;;;;;;;;;6210046;22;20430;-87
2023/09/18 01:42:43;;;;;;;;;;;;;;;;;;6140586;23;20254;-87
2023/09/18 01:45:10;;;;;;;;;;;;;;;;;;6145377;23;19920;-87
2023/09/18 01:47:37;;;;;;;;;;;;;;;;;;6142478;23;20062;-88
2023/09/18 01:50:07;;;;;;;;;;;;;;;;;;6118585;23;20060;-87
2023/09/18 01:52:38;;;;;;;;;;;;;;;;;;6142756;23;19920;-87
2023/09/18 01:55:08;;;;;;;;;;;;;;;;;;6232927;22;19919;-87
2023/09/18 01:57:36;;;;;;;;;;;;;;;;;;6232302;22;19934;-88
2023/09/18 02:00:07;;;;;;;;;;;;;;;;;;6235267;22;19926;-87
2023/09/18 02:02:35;;;;;;;;;;;;;;;;;;6230270;22;19929;-83
2023/09/18 02:05:02;;;;;;;;;;;;;;;;;;6209322;22;20004;-83
2023/09/18 02:07:29;;;;;;;;;;;;;;;;;;6204968;22;19920;-83
2023/09/18 02:09:59;;;;;;;;;;;;;;;;;;6233151;22;19988;-83
2023/09/18 02:12:25;;;;;;;;;;;;;;;;;;6229335;22;19972;-83
2023/09/18 02:14:51;;;;;;;;;;;;;;;;;;6264858;22;20660;-84
2023/09/18 02:17:20;;;;;;;;;;;;;;;;;;6208125;22;19926;-83
2023/09/18 02:19:47;;;;;;;;;;;;;;;;;;6233015;22;19977;-83
2023/09/18 02:22:13;;;;;;;;;;;;;;;;;;6206802;22;19994;-84
2023/09/18 02:24:44;;;;;;;;;;;;;;;;;;6259764;22;20419;-83
2023/09/18 02:27:11;;;;;;;;;;;;;;;;;;6236906;22;20430;-83
2023/09/18 02:29:39;;;;;;;;;;;;;;;;;;6236032;22;19919;-83
2023/09/18 02:32:10;;;;;;;;;;;;;;;;;;6237073;22;19931;-83
2023/09/18 02:34:43;;;;;;;;;;;;;;;;;;6206937;22;19986;-83
2023/09/18 02:37:23;;;;;;;;;;;;;;;;;;6236301;22;19919;-84
2023/09/18 02:39:50;;;;;;;;;;;;;;;;;;6205940;22;20252;-83
2023/09/18 02:42:18;;;;;;;;;;;;;;;;;;6249604;22;20359;-83
2023/09/18 02:44:47;;;;;;;;;;;;;;;;;;6258694;22;19921;-83
2023/09/18 02:47:14;;;;;;;;;;;;;;;;;;6259188;22;19919;-83
2023/09/18 02:49:42;;;;;;;;;;;;;;;;;;6256351;22;20630;-83
2023/09/18 03:01:33;;;;;;;;;;;;;;;;;;6114887;23;20256;-84
2023/09/18 03:04:11;;;;;;;;;;;;;;;;;;6086574;23;19921;-84
2023/09/18 03:07:05;;;;;;;;;;;;;;;;;;6110792;23;20023;-83
2023/09/18 03:09:45;;;;;;;;;;;;;;;;;;;;;
2023/09/18 03:12:24;;;;;;;;;;;;;;;;;;6133700;23;20008;-83
2023/09/18 03:14:50;;;;;;;;;;;;;;;;;;6171983;23;20575;-83
2023/09/18 03:17:17;;;;;;;;;;;;;;;;;;6142589;23;19999;-83
2023/09/18 03:19:44;;;;;;;;;;;;;;;;;;6144404;23;19944;-84
2023/09/18 03:22:11;;;;;;;;;;;;;;;;;;6171020;23;20713;-84
2023/09/18 03:24:39;;;;;;;;;;;;;;;;;;6147028;23;19920;-84
2023/09/18 03:30:26;;;;;;;;;;;;;;;;;;;;;
2023/09/18 03:39:32;;;;;;;;;;;;;;;;;;6230548;22;20068;-84
2023/09/18 03:42:02;;;;;;;;;;;;;;;;;;6257087;22;20332;-84
2023/09/18 03:44:33;;;;;;;;;;;;;;;;;;6254683;22;19919;-84
2023/09/18 03:50:28;;;;;;;;;;;;;;;;;;6155522;23;19928;-83
2023/09/18 03:56:23;;;;;;;;;;;;;;;;;;6267641;22;19918;-84
2023/09/18 03:58:49;;;;;;;;;;;;;;;;;;6231224;22;19927;-84
2023/09/18 04:01:17;;;;;;;;;;;;;;;;;;6257224;22;19999;-84
2023/09/18 04:03:44;;;;;;;;;;;;;;;;;;6258451;22;19919;-84
2023/09/18 04:06:11;;;;;;;;;;;;;;;;;;6261474;22;19994;-84
2023/09/18 04:08:37;;;;;;;;;;;;;;;;;;6258248;22;19922;-84
2023/09/18 04:11:04;;;;;;;;;;;;;;;;;;6261716;22;19919;-84
2023/09/18 04:13:33;;;;;;;;;;;;;;;;;;6255035;22;19919;-84
2023/09/18 04:16:00;;;;;;;;;;;;;;;;;;6259505;22;19919;-84
2023/09/18 04:18:29;;;;;;;;;;;;;;;;;;6257434;22;19973;-83
2023/09/18 04:20:57;;;;;;;;;;;;;;;;;;6258429;22;19923;-84
2023/09/18 04:23:24;;;;;;;;;;;;;;;;;;6231876;22;19923;-83
2023/09/18 04:25:58;;;;;;;;;;;;;;;;;;6258511;22;19926;-84
2023/09/18 04:28:25;;;;;;;;;;;;;;;;;;6231342;22;19926;-83
2023/09/18 04:30:51;;;;;;;;;;;;;;;;;;6231447;22;20252;-84
2023/09/18 04:33:18;;;;;;;;;;;;;;;;;;6260834;22;19919;-84
2023/09/18 04:35:45;;;;;;;;;;;;;;;;;;6258486;22;19927;-84
2023/09/18 04:38:16;;;;;;;;;;;;;;;;;;6257286;22;19920;-84
2023/09/18 04:40:45;;;;;;;;;;;;;;;;;;6231632;22;19915;-84
2023/09/18 04:43:12;;;;;;;;;;;;;;;;;;6257619;22;19977;-84
2023/09/18 04:45:40;;;;;;;;;;;;;;;;;;6257344;22;20379;-84
2023/09/18 04:48:08;;;;;;;;;;;;;;;;;;6230436;22;20386;-84
2023/09/18 04:50:35;;;;;;;;;;;;;;;;;;6226610;22;19955;-84
2023/09/18 04:53:01;;;;;;;;;;;;;;;;;;6257638;22;19919;-84
2023/09/18 04:55:29;;;;;;;;;;;;;;;;;;6254923;22;20326;-84
2023/09/18 04:57:55;;;;;;;;;;;;;;;;;;6255606;22;19967;-84
2023/09/18 05:00:23;;;;;;;;;;;;;;;;;;6257190;22;19919;-84
2023/09/18 05:02:50;;;;;;;;;;;;;;;;;;6258152;22;19919;-84
2023/09/18 05:05:21;;;;;;;;;;;;;;;;;;6234170;22;19916;-84
2023/09/18 05:10:53;;;;;;;;;;;;;;;;;;6253813;22;20410;-85
2023/09/18 05:13:23;;;;;;;;;;;;;;;;;;6259160;22;19990;-85
2023/09/18 05:15:54;;;;;;;;;;;;;;;;;;6233929;22;19920;-85
2023/09/18 05:23:36;;;;;;;;;;;;;;;;;;6289660;22;20280;-85
2023/09/18 05:26:16;;;;;;;;;;;;;;;;;;6262147;22;19925;-85
2023/09/18 05:28:47;;;;;;;;;;;;;;;;;;6232776;22;19950;-83
2023/09/18 05:31:21;;;;;;;;;;;;;;;;;;6285690;22;19923;-84
2023/09/18 05:33:51;;;;;;;;;;;;;;;;;;6262326;22;19918;-84
2023/09/18 05:36:35;;;;;;;;;;;;;;;;;;6261048;22;19957;-85
2023/09/18 05:39:03;;;;;;;;;;;;;;;;;;6236834;22;19934;-84
2023/09/18 05:41:45;;;;;;;;;;;;;;;;;;6287651;22;19927;-84
2023/09/18 05:57:27;;;;;;;;;;;;;;;;;;6313464;22;19923;-84
2023/09/18 05:59:53;;;;;;;;;;;;;;;;;;6267862;22;19949;-85
2023/09/18 06:02:20;;;;;;;;;;;;;;;;;;6292100;22;19964;-84
2023/09/18 06:04:47;;;;;;;;;;;;;;;;;;6295261;22;19918;-84
2023/09/18 06:07:15;;;;;;;;;;;;;;;;;;6324879;22;20308;-84
2023/09/18 06:09:42;;;;;;;;;;;;;;;;;;6298192;22;20376;-84
2023/09/18 06:12:09;;;;;;;;;;;;;;;;;;6271316;22;19963;-84
2023/09/18 06:14:38;;;;;;;;;;;;;;;;;;6268843;22;19918;-84
2023/09/18 06:17:05;;;;;;;;;;;;;;;;;;6297423;22;19923;-85
2023/09/18 06:19:57;;;;;;;;;;;;;;;;;;;;;
2023/09/18 06:22:25;;;;;;;;;;;;;;;;;;6286540;22;19989;-84
2023/09/18 06:24:52;;;;;;;;;;;;;;;;;;6297730;22;19971;-84
2023/09/18 06:27:23;;;;;;;;;;;;;;;;;;6299351;22;19918;-85
2023/09/18 06:32:57;;;;;;;;;;;;;;;;;;6176456;23;19920;-85
2023/09/18 06:38:29;;;;;;;;;;;;;;;;;;6289035;22;19957;-85
2023/09/18 06:41:06;;;;;;;;;;;;;;;;;;6236567;22;20262;-85
2023/09/18 06:43:34;;;;;;;;;;;;;;;;;;6259572;22;19926;-87
2023/09/18 06:49:22;;;;;;;;;;;;;;;;;;6169908;23;19937;-87
2023/09/18 06:51:55;;;;;;;;;;;;;;;;;;6229321;22;19942;-88
2023/09/18 06:54:24;;;;;;;;;;;;;;;;;;6265081;22;19918;-89
2023/09/18 06:56:50;;;;;;;;;;;;;;;;;;6272765;22;19922;-88
2023/09/18 07:02:37;;;;;;;;;;;;;;;;;;6172379;23;19963;-88
2023/09/18 07:05:31;;;;;;;;;;;;;;;;;;6223146;23;19924;-87
2023/09/18 07:19:16;;;;;;;;;;;;;;;;;;6307415;22;20257;-85
2023/09/18 07:21:47;;;;;;;;;;;;;;;;;;6288769;22;20009;-85
2023/09/18 07:35:04;;;;;;;;;;;;;;;;;;6296104;22;19929;-85
2023/09/18 07:40:35;;;;;;;;;;;;;;;;;;6295175;22;19929;-87
2023/09/18 07:43:01;;;;;;;;;;;;;;;;;;6270008;22;20001;-87
2023/09/18 07:45:29;;;;;;;;;;;;;;;;;;6269832;22;19925;-87
2023/09/18 07:50:57;;;;;;;;;;;;;;;;;;6295040;22;19919;-88
2023/09/18 07:53:23;;;;;;;;;;;;;;;;;;6295886;22;20341;-88
2023/09/18 07:55:50;;;;;;;;;;;;;;;;;;6321545;22;19919;-89
2023/09/18 07:58:20;;;;;;;;;;;;;;;;;;6272814;22;19918;-88
2023/09/18 08:00:48;;;;;;;;;;;;;;;;;;6323469;22;19930;-88
2023/09/18 08:08:26;;;;;;;;;;;;;;;;;;6292982;22;19929;-89
2023/09/18 08:10:52;;;;;;;;;;;;;;;;;;6266268;22;19918;-89
2023/09/18 08:13:19;;;;;;;;;;;;;;;;;;6268397;22;19919;-89
2023/09/18 08:15:45;;;;;;;;;;;;;;;;;;6273108;22;19919;-89
2023/09/18 08:18:13;;;;;;;;;;;;;;;;;;6268128;22;19971;-89
2023/09/18 08:20:39;;;;;;;;;;;;;;;;;;6295101;22;20531;-89
2023/09/18 08:23:05;;;;;;;;;;;;;;;;;;6296418;22;19923;-89
2023/09/18 08:25:31;;;;;;;;;;;;;;;;;;6290435;22;20351;-90
2023/09/18 08:27:57;;;;;;;;;;;;;;;;;;6266086;22;19922;-89
2023/09/18 08:30:23;;;;;;;;;;;;;;;;;;6294955;22;19918;-90
2023/09/18 08:32:49;;;;;;;;;;;;;;;;;;6297634;22;19923;-90
2023/09/18 08:35:15;;;;;;;;;;;;;;;;;;6299154;22;19964;-89
2023/09/18 08:37:41;;;;;;;;;;;;;;;;;;6269051;22;19922;-91
2023/09/18 08:40:10;;;;;;;;;;;;;;;;;;6272494;22;19961;-90
2023/09/18 08:42:36;;;;;;;;;;;;;;;;;;6267908;22;20331;-89
2023/09/18 08:45:03;;;;;;;;;;;;;;;;;;6271251;22;20254;-89
2023/09/18 08:47:32;;;;;;;;;;;;;;;;;;6268115;22;19923;-89
2023/09/18 08:50:00;;;;;;;;;;;;;;;;;;6299377;22;19925;-90
2023/09/18 08:52:26;;;;;;;;;;;;;;;;;;6271060;22;20420;-92
2023/09/18 08:54:52;;;;;;;;;;;;;;;;;;6295752;22;20331;-91
2023/09/18 08:57:21;;;;;;;;;;;;;;;;;;6290537;22;19929;-91
2023/09/18 08:59:47;;;;;;;;;;;;;;;;;;6295179;22;19918;-90
2023/09/18 09:02:13;;;;;;;;;;;;;;;;;;6273142;22;20002;-89
2023/09/18 09:04:39;;;;;;;;;;;;;;;;;;6271566;22;20414;-89
2023/09/18 09:07:06;;;;;;;;;;;;;;;;;;6298911;22;19915;-90
2023/09/18 09:09:32;;;;;;;;;;;;;;;;;;6317811;22;20021;-89
2023/09/18 09:11:58;;;;;;;;;;;;;;;;;;6320964;22;20025;-89
2023/09/18 09:14:30;;;;;;;;;;;;;;;;;;6297146;22;19914;-91
2023/09/18 09:16:59;;;;;;;;;;;;;;;;;;6326066;22;20061;-90
2023/09/18 09:19:26;;;;;;;;;;;;;;;;;;6320031;22;19923;-90
2023/09/18 09:21:53;;;;;;;;;;;;;;;;;;6299337;22;20327;-90
2023/09/18 09:24:19;;;;;;;;;;;;;;;;;;6300824;22;19971;-89
2023/09/18 09:26:45;;;;;;;;;;;;;;;;;;6302599;22;19915;-90
2023/09/18 09:29:11;;;;;;;;;;;;;;;;;;6328210;22;20373;-89
2023/09/18 09:31:37;;;;;;;;;;;;;;;;;;6326287;22;19925;-89
2023/09/18 09:34:05;;;;;;;;;;;;;;;;;;6323579;22;19919;-91
2023/09/18 09:36:31;;;;;;;;;;;;;;;;;;6321443;22;19918;-90
2023/09/18 09:38:57;;;;;;;;;;;;;;;;;;6298631;22;19994;-89
2023/09/18 09:41:23;;;;;;;;;;;;;;;;;;6296681;22;20313;-90
2023/09/18 09:43:49;;;;;;;;;;;;;;;;;;6322196;22;20302;-89
2023/09/18 09:46:17;;;;;;;;;;;;;;;;;;6324088;22;20389;-89
2023/09/18 09:48:44;;;;;;;;;;;;;;;;;;6320306;22;19946;-90
2023/09/18 09:51:12;;;;;;;;;;;;;;;;;;6321623;22;19919;-88
2023/09/18 09:53:38;;;;;;;;;;;;;;;;;;6324439;22;20560;-88
2023/09/18 09:56:04;;;;;;;;;;;;;;;;;;6324288;22;19918;-88
2023/09/18 09:58:31;;;;;;;;;;;;;;;;;;6295137;22;20335;-88
2023/09/18 10:01:09;;;;;;;;;;;;;;;;;;6300094;22;20019;-88
2023/09/18 10:03:37;;;;;;;;;;;;;;;;;;6292360;22;20393;-88
2023/09/18 10:06:09;;;;;;;;;;;;;;;;;;6323330;22;19918;-88
2023/09/18 10:08:35;;;;;;;;;;;;;;;;;;6313910;22;19937;-88
2023/09/18 10:11:16;;;;;;;;;;;;;;;;;;6311574;22;22103;-88
2023/09/18 10:13:43;;;;;;;;;;;;;;;;;;6323908;22;19918;-88
2023/09/18 10:16:10;;;;;;;;;;;;;;;;;;6273813;22;20721;-88
2023/09/18 10:18:36;;;;;;;;;;;;;;;;;;6270595;22;19965;-88
2023/09/18 10:21:02;;;;;;;;;;;;;;;;;;6295461;22;20347;-88
2023/09/18 10:23:28;;;;;;;;;;;;;;;;;;6270695;22;20398;-88
2023/09/18 10:25:55;;;;;;;;;;;;;;;;;;6297530;22;19930;-88
2023/09/18 10:28:21;;;;;;;;;;;;;;;;;;6294956;22;20355;-88
2023/09/18 10:30:47;;;;;;;;;;;;;;;;;;6272019;22;20381;-88
2023/09/18 10:33:13;;;;;;;;;;;;;;;;;;6298486;22;19918;-88
2023/09/18 10:35:39;;;;;;;;;;;;;;;;;;6272259;22;20721;-88
2023/09/18 10:38:05;;;;;;;;;;;;;;;;;;6270357;22;19925;-88
2023/09/18 10:40:31;;;;;;;;;;;;;;;;;;6269768;22;19915;-88
2023/09/18 10:42:57;;;;;;;;;;;;;;;;;;6269876;22;19968;-88
2023/09/18 10:45:23;;;;;;;;;;;;;;;;;;6293109;22;19986;-88
2023/09/18 10:47:49;;;;;;;;;;;;;;;;;;6271593;22;19966;-88
2023/09/18 10:50:15;;;;;;;;;;;;;;;;;;6296817;22;20335;-88
2023/09/18 10:52:41;;;;;;;;;;;;;;;;;;6294674;22;20329;-88
2023/09/18 10:55:07;;;;;;;;;;;;;;;;;;6269780;22;20247;-88
2023/09/18 10:57:34;;;;;;;;;;;;;;;;;;6267997;22;19925;-88
2023/09/18 11:00:00;;;;;;;;;;;;;;;;;;6296748;22;19914;-88
2023/09/18 11:02:26;;;;;;;;;;;;;;;;;;6295394;22;20285;-88
2023/09/18 11:04:52;;;;;;;;;;;;;;;;;;6271685;22;19922;-88
2023/09/18 11:07:21;;;;;;;;;;;;;;;;;;6272222;22;19914;-89
2023/09/18 11:09:47;;;;;;;;;;;;;;;;;;6315572;22;20613;-88
2023/09/18 11:12:16;;;;;;;;;;;;;;;;;;6296300;22;19918;-89
2023/09/18 11:14:43;;;;;;;;;;;;;;;;;;6293936;22;19918;-88
2023/09/18 11:17:09;;;;;;;;;;;;;;;;;;6298612;22;20285;-88
2023/09/18 11:19:35;;;;;;;;;;;;;;;;;;6323036;22;20152;-88
2023/09/18 11:22:01;;;;;;;;;;;;;;;;;;6322846;22;20331;-89
2023/09/18 11:24:27;;;;;;;;;;;;;;;;;;6294627;22;20202;-88
2023/09/18 11:26:53;;;;;;;;;;;;;;;;;;6320776;22;19933;-88
2023/09/18 11:29:21;;;;;;;;;;;;;;;;;;6294758;22;19950;-88
2023/09/18 11:31:48;;;;;;;;;;;;;;;;;;6297335;22;19919;-87
2023/09/18 11:34:14;;;;;;;;;;;;;;;;;;6323904;22;19918;-87
2023/09/18 11:36:40;;;;;;;;;;;;;;;;;;6322267;22;20251;-88
2023/09/18 11:39:06;;;;;;;;;;;;;;;;;;6322646;22;19933;-88
2023/09/18 11:41:32;;;;;;;;;;;;;;;;;;6292961;22;20463;-88
2023/09/18 11:43:58;;;;;;;;;;;;;;;;;;6296320;22;19918;-88
2023/09/18 11:46:25;;;;;;;;;;;;;;;;;;6320958;22;19938;-89
2023/09/18 11:48:51;;;;;;;;;;;;;;;;;;6322486;22;19933;-88
2023/09/18 11:51:17;;;;;;;;;;;;;;;;;;6295257;22;19944;-89
2023/09/18 11:53:43;;;;;;;;;;;;;;;;;;6319713;22;19914;-89
2023/09/18 11:56:09;;;;;;;;;;;;;;;;;;6297081;22;19954;-88
2023/09/18 11:58:40;;;;;;;;;;;;;;;;;;6292056;22;19914;-88
2023/09/18 12:01:07;;;;;;;;;;;;;;;;;;6296137;22;19919;-89
2023/09/18 12:03:33;;;;;;;;;;;;;;;;;;6321430;22;19923;-88
2023/09/18 12:05:59;;;;;;;;;;;;;;;;;;6316347;22;19925;-88
2023/09/18 12:08:29;;;;;;;;;;;;;;;;;;6291095;22;19923;-89
2023/09/18 12:10:55;;;;;;;;;;;;;;;;;;6328600;22;19907;-88
2023/09/18 12:13:21;;;;;;;;;;;;;;;;;;6300708;22;19987;-90
2023/09/18 12:15:47;;;;;;;;;;;;;;;;;;6299626;22;19919;-89
2023/09/18 12:18:14;;;;;;;;;;;;;;;;;;6291601;22;19922;-89
2023/09/18 12:20:41;;;;;;;;;;;;;;;;;;6316631;22;19918;-89
2023/09/18 12:23:07;;;;;;;;;;;;;;;;;;6318884;22;20314;-89
2023/09/18 12:25:33;;;;;;;;;;;;;;;;;;6311250;22;20022;-89
2023/09/18 12:28:00;;;;;;;;;;;;;;;;;;6320227;22;20269;-89
2023/09/18 12:30:26;;;;;;;;;;;;;;;;;;6316033;22;19968;-90
2023/09/18 12:32:52;;;;;;;;;;;;;;;;;;6314748;22;19919;-89
2023/09/18 12:35:21;;;;;;;;;;;;;;;;;;6316905;22;19914;-89
2023/09/18 12:37:47;;;;;;;;;;;;;;;;;;6315879;22;20291;-89
2023/09/18 12:40:13;;;;;;;;;;;;;;;;;;6289498;22;19925;-89
2023/09/18 12:42:40;;;;;;;;;;;;;;;;;;6309247;22;20284;-89
2023/09/18 12:45:06;;;;;;;;;;;;;;;;;;6287757;22;19918;-89
2023/09/18 12:47:32;;;;;;;;;;;;;;;;;;6308267;22;20319;-89
2023/09/18 12:49:58;;;;;;;;;;;;;;;;;;6287894;22;19918;-88
2023/09/18 12:52:24;;;;;;;;;;;;;;;;;;6284887;22;19997;-89
2023/09/18 12:54:54;;;;;;;;;;;;;;;;;;6314230;22;19918;-89
2023/09/18 12:57:20;;;;;;;;;;;;;;;;;;6286549;22;19933;-89
2023/09/18 12:59:54;;;;;;;;;;;;;;;;;;6286672;22;19929;-89
2023/09/18 13:02:19;;;;;;;;;;;;;;;;;;6310364;22;19934;-89
2023/09/18 13:04:48;;;;;;;;;;;;;;;;;;6285943;22;19953;-88
2023/09/18 13:07:14;;;;;;;;;;;;;;;;;;6313697;22;20798;-89
2023/09/18 13:09:40;;;;;;;;;;;;;;;;;;6285829;22;19922;-89
2023/09/18 13:12:06;;;;;;;;;;;;;;;;;;6285011;22;19952;-89
2023/09/18 13:14:32;;;;;;;;;;;;;;;;;;6304002;22;19918;-89
2023/09/18 13:16:58;;;;;;;;;;;;;;;;;;6311853;22;19957;-88
2023/09/18 13:19:24;;;;;;;;;;;;;;;;;;6283797;22;20029;-89
2023/09/18 13:21:50;;;;;;;;;;;;;;;;;;6309087;22;19923;-89
2023/09/18 13:24:16;;;;;;;;;;;;;;;;;;6289260;22;19921;-90
2023/09/18 13:26:42;;;;;;;;;;;;;;;;;;6278542;22;19919;-90
2023/09/18 13:29:08;;;;;;;;;;;;;;;;;;6310735;22;19963;-89
2023/09/18 13:31:34;;;;;;;;;;;;;;;;;;6307016;22;20623;-90
2023/09/18 13:34:00;;;;;;;;;;;;;;;;;;6286731;22;19918;-89
2023/09/18 13:36:43;;;;;;;;;;;;;;;;;;6285473;22;19918;-89
2023/09/18 13:39:11;;;;;;;;;;;;;;;;;;6291703;22;20282;-89
2023/09/18 13:41:37;;;;;;;;;;;;;;;;;;6289555;22;20288;-88
2023/09/18 13:44:03;;;;;;;;;;;;;;;;;;6315339;22;19985;-89
2023/09/18 13:46:28;;;;;;;;;;;;;;;;;;6284693;22;20287;-89
2023/09/18 13:48:54;;;;;;;;;;;;;;;;;;6315989;22;19922;-90
2023/09/18 13:51:21;;;;;;;;;;;;;;;;;;6314334;22;19915;-89
2023/09/18 13:53:56;;;;;;;;;;;;;;;;;;6287012;22;19919;-89
2023/09/18 13:56:22;;;;;;;;;;;;;;;;;;6312179;22;20374;-89
2023/09/18 13:58:48;;;;;;;;;;;;;;;;;;6315788;22;20009;-89
2023/09/18 14:01:15;;;;;;;;;;;;;;;;;;6314453;22;20039;-90
2023/09/18 14:03:42;;;;;;;;;;;;;;;;;;6313355;22;20079;-89
2023/09/18 14:06:09;;;;;;;;;;;;;;;;;;6314953;22;19922;-90
2023/09/18 14:08:35;;;;;;;;;;;;;;;;;;6279719;22;19977;-89
2023/09/18 14:11:02;;;;;;;;;;;;;;;;;;6264035;22;20261;-90
2023/09/18 14:13:27;;;;;;;;;;;;;;;;;;6284569;22;19971;-90
2023/09/18 14:15:55;;;;;;;;;;;;;;;;;;6288508;22;19918;-90
2023/09/18 14:18:21;;;;;;;;;;;;;;;;;;6290570;22;19926;-87
2023/09/18 14:23:51;;;;;;;;;;;;;;;;;;6328649;22;19949;-86
2023/09/18 14:26:18;;;;;;;;;;;;;;;;;;6290295;22;19929;-87
2023/09/18 14:28:50;;;;;;;;;;;;;;;;;;6296935;22;19918;-86
2023/09/18 14:31:39;;;;;;;;;;;;;;;;;;6319298;22;19956;-86
2023/09/18 14:34:05;;;;;;;;;;;;;;;;;;6311828;22;19979;-86
2023/09/18 14:36:35;;;;;;;;;;;;;;;;;;6312034;22;19946;-87
2023/09/18 14:39:21;;;;;;;;;;;;;;;;;;6289191;22;19993;-91
2023/09/18 14:41:48;;;;;;;;;;;;;;;;;;6315205;22;20469;-87
2023/09/18 14:44:15;;;;;;;;;;;;;;;;;;6312543;22;20017;-87
2023/09/18 14:46:45;;;;;;;;;;;;;;;;;;6306856;22;19994;-86
2023/09/18 14:49:12;;;;;;;;;;;;;;;;;;6311280;22;20343;-87
2023/09/18 14:51:42;;;;;;;;;;;;;;;;;;6281724;22;19918;-89
2023/09/18 14:54:14;;;;;;;;;;;;;;;;;;6285678;22;19954;-88
2023/09/18 14:56:48;;;;;;;;;;;;;;;;;;6290586;22;19949;-88
2023/09/18 14:59:15;;;;;;;;;;;;;;;;;;6284157;22;20013;-87
2023/09/18 15:01:53;;;;;;;;;;;;;;;;;;6311443;22;20508;-87
2023/09/18 15:04:24;;;;;;;;;;;;;;;;;;6282518;22;19972;-88
2023/09/18 15:06:55;;;;;;;;;;;;;;;;;;6312302;22;19933;-87
2023/09/18 15:09:22;;;;;;;;;;;;;;;;;;6306854;22;19971;-89
2023/09/18 15:14:40;;;;;;;;;;;;;;;;;;6308295;22;20398;-87
2023/09/18 15:17:07;;;;;;;;;;;;;;;;;;6286805;22;19957;-87
2023/09/18 15:19:52;;;;;;;;;;;;;;;;;;6304815;22;19926;-87
2023/09/18 15:22:22;;;;;;;;;;;;;;;;;;6229817;22;19973;-87
2023/09/18 15:24:50;;;;;;;;;;;;;;;;;;6255229;22;19926;-88
2023/09/18 15:27:39;;;;;;;;;;;;;;;;;;6255658;22;19988;-88
2023/09/18 15:30:14;;;;;;;;;;;;;;;;;;6261236;22;19971;-87
2023/09/18 15:32:45;;;;;;;;;;;;;;;;;;6251525;22;20480;-88
2023/09/18 15:35:15;;;;;;;;;;;;;;;;;;6231732;22;19919;-87
2023/09/18 15:37:43;;;;;;;;;;;;;;;;;;6249660;22;19995;-87
2023/09/18 15:40:12;;;;;;;;;;;;;;;;;;6229193;22;19919;-87
2023/09/18 15:42:40;;;;;;;;;;;;;;;;;;6250919;22;21053;-87
2023/09/18 15:45:11;;;;;;;;;;;;;;;;;;6230909;22;19953;-87
2023/09/18 15:47:37;;;;;;;;;;;;;;;;;;6226992;22;19929;-88
2023/09/18 15:50:04;;;;;;;;;;;;;;;;;;6226905;22;19918;-87
2023/09/18 15:52:31;;;;;;;;;;;;;;;;;;6250728;22;20018;-86
2023/09/18 15:54:59;;;;;;;;;;;;;;;;;;6278912;22;19926;-86
2023/09/18 15:57:40;;;;;;;;;;;;;;;;;;6246367;22;19919;-88
2023/09/18 16:00:17;;;;;;;;;;;;;;;;;;6253286;22;19926;-87
2023/09/18 16:02:46;;;;;;;;;;;;;;;;;;6227017;22;19923;-88
2023/09/18 16:05:34;;;;;;;;;;;;;;;;;;6210641;22;20268;-88
2023/09/18 16:08:13;;;;;;;;;;;;;;;;;;6185587;23;19966;-88
2023/09/18 16:10:40;;;;;;;;;;;;;;;;;;6136918;23;19920;-88
2023/09/18 16:13:08;;;;;;;;;;;;;;;;;;6165236;23;20022;-87
2023/09/18 16:15:38;;;;;;;;;;;;;;;;;;6161216;23;20036;-87
2023/09/18 16:24:24;;;;;;;;;;;;;;;;;;6141014;23;19969;-88
2023/09/18 16:27:07;;;;;;;;;;;;;;;;;;;;;
2023/09/18 16:32:42;;;;;;;;;;;;;;;;;;6148097;23;19942;-87
2023/09/18 16:35:12;;;;;;;;;;;;;;;;;;6131382;23;20002;-88
2023/09/18 16:37:45;;;;;;;;;;;;;;;;;;6159574;23;19920;-87
2023/09/18 16:40:37;;;;;;;;;;;;;;;;;;6187720;23;19926;-87
2023/09/18 16:43:23;;;;;;;;;;;;;;;;;;;;;
2023/09/18 16:45:59;;;;;;;;;;;;;;;;;;6178011;23;20676;-87
2023/09/18 16:48:35;;;;;;;;;;;;;;;;;;6155471;23;19931;-87
2023/09/18 16:51:15;;;;;;;;;;;;;;;;;;6182314;23;19927;-87
2023/09/18 16:53:55;;;;;;;;;;;;;;;;;;6189154;23;19966;-87
2023/09/18 16:56:35;;;;;;;;;;;;;;;;;;;;;
2023/09/18 16:59:22;;;;;;;;;;;;;;;;;;;;;
2023/09/18 17:09:09;;;;;;;;;;;;;;;;;;6050458;23;19922;-89
2023/09/18 17:11:46;;;;;;;;;;;;;;;;;;6078438;23;20338;-88
2023/09/18 17:14:27;;;;;;;;;;;;;;;;;;;;;
2023/09/18 17:20:42;;;;;;;;;;;;;;;;;;6165380;23;19967;-92
2023/09/18 17:23:23;;;;;;;;;;;;;;;;;;6063447;23;20024;-91
2023/09/18 17:32:28;;;;;;;;;;;;;;;;;;5967473;23;19949;-90
2023/09/18 17:37:55;;;;;;;;;;;;;;;;;;5967913;23;19922;-88
2023/09/18 17:40:46;;;;;;;;;;;;;;;;;;5988563;23;19922;-89
2023/09/18 17:43:31;;;;;;;;;;;;;;;;;;5989691;23;19937;-88
2023/09/18 17:48:59;;;;;;;;;;;;;;;;;;6037534;23;19925;-87
2023/09/18 17:51:39;;;;;;;;;;;;;;;;;;;;;
2023/09/18 17:54:16;;;;;;;;;;;;;;;;;;5965693;23;19922;-87
2023/09/18 17:56:46;;;;;;;;;;;;;;;;;;5994886;23;20003;-87
2023/09/18 17:59:16;;;;;;;;;;;;;;;;;;6047300;23;19932;-88
2023/09/18 18:01:44;;;;;;;;;;;;;;;;;;6155016;22;19950;-87
2023/09/18 18:04:11;;;;;;;;;;;;;;;;;;6224786;22;19919;-87
2023/09/18 18:06:38;;;;;;;;;;;;;;;;;;6197087;22;19919;-86
2023/09/18 18:09:08;;;;;;;;;;;;;;;;;;6226800;22;19995;-87
2023/09/18 18:11:46;;;;;;;;;;;;;;;;;;;;;
2023/09/18 18:14:26;;;;;;;;;;;;;;;;;;6225627;22;19919;-89
2023/09/18 18:17:09;;;;;;;;;;;;;;;;;;;;;
2023/09/18 18:19:41;;;;;;;;;;;;;;;;;;6222117;22;19930;-88
2023/09/18 18:22:11;;;;;;;;;;;;;;;;;;6213294;22;19923;-89
2023/09/18 18:24:47;;;;;;;;;;;;;;;;;;6221650;22;20349;-89
2023/09/18 18:27:34;;;;;;;;;;;;;;;;;;6243371;22;20602;-88
2023/09/18 18:30:12;;;;;;;;;;;;;;;;;;6226222;22;19921;-88
2023/09/18 18:32:56;;;;;;;;;;;;;;;;;;6181706;23;19923;-89
2023/09/18 18:35:31;;;;;;;;;;;;;;;;;;6156806;23;20806;-89
2023/09/18 18:41:12;;;;;;;;;;;;;;;;;;6147541;23;20632;-88
2023/09/18 18:43:48;;;;;;;;;;;;;;;;;;6131699;23;19924;-89
2023/09/18 18:49:08;;;;;;;;;;;;;;;;;;6144409;23;19936;-89
2023/09/18 19:01:19;;;;;;;;;;;;;;;;;;5963797;24;19945;-89
2023/09/18 19:07:07;;;;;;;;;;;;;;;;;;;;;
2023/09/18 19:09:51;;;;;;;;;;;;;;;;;;5940527;23;19923;-89
2023/09/18 19:15:39;;;;;;;;;;;;;;;;;;5912789;24;19931;-89
2023/09/18 19:21:55;;;;;;;;;;;;;;;;;;5961179;23;20526;-89
2023/09/18 19:25:06;;;;;;;;;;;;;;;;;;5997299;23;19925;-89
2023/09/18 19:34:04;;;;;;;;;;;;;;;;;;6010324;23;19922;-90
2023/09/18 19:37:05;;;;;;;;;;;;;;;;;;6020169;23;19924;-90
2023/09/18 19:39:54;;;;;;;;;;;;;;;;;;;;;
2023/09/18 19:49:22;;;;;;;;;;;;;;;;;;6027017;23;19928;-88
2023/09/18 19:55:43;;;;;;;;;;;;;;;;;;;;;
2023/09/18 20:07:42;;;;;;;;;;;;;;;;;;6184639;23;20367;-88
2023/09/18 20:10:36;;;;;;;;;;;;;;;;;;;;;
2023/09/18 20:19:45;;;;;;;;;;;;;;;;;;6048819;23;20008;-89
2023/09/18 20:22:21;;;;;;;;;;;;;;;;;;6012304;23;19922;-89
2023/09/18 20:24:53;;;;;;;;;;;;;;;;;;5995246;23;20324;-89
2023/09/18 20:27:29;;;;;;;;;;;;;;;;;;6024357;23;19921;-90
2023/09/18 20:30:04;;;;;;;;;;;;;;;;;;6028961;23;19968;-89
2023/09/18 20:32:38;;;;;;;;;;;;;;;;;;6009947;23;19921;-89
2023/09/18 20:35:07;;;;;;;;;;;;;;;;;;6010930;23;20464;-89
2023/09/18 20:37:34;;;;;;;;;;;;;;;;;;6055880;23;20397;-89
2023/09/18 20:40:01;;;;;;;;;;;;;;;;;;6061099;23;20044;-89
2023/09/18 20:42:29;;;;;;;;;;;;;;;;;;6066676;23;19920;-89